• Join FlightAware (Why Join?)
  • Login
  • US Flag 
11:08PM EDT


 

Airport Tracker/Info


-or-


 

Live Flight TrackerFlight Track Log ✈ UAL6129 ✈ 26-Apr-2013 ✈ KORD - KCWA

Flight Track Log - Related Links

Times and Time Zones

All times are in EDT time to prevent confusion due to time zone crossing. See the UAL6129 flight status page for this flight to view local times or setup timezone preferences in your user account.

Time Position Orientation Groundspeed Altitude Reporting Facility
EDT Latitude Longitude Course Direction KTS MPH feet Rate Location/Type
10:11PM 41.9667 -87.9333 294° West 167 192 1,900  Level Chicago TRACON
10:12PM 41.9833 -87.9833 294° West 224 258 3,900 2,340 Climbing Chicago TRACON
10:15PM 42.1344 -87.9953 357° North 271 312 9,600 2,520 Climbing Chicago Center
10:16PM 42.2253 -88.0006 358° North 273 314 12,400 1,740 Climbing Chicago Center
10:17PM 42.3161 -87.9972 North 322 371 13,200 1,260 Climbing Chicago Center
10:18PM 42.4106 -87.9986 359° North 342 394 15,100 1,560 Climbing Chicago Center
10:19PM 42.5089 -87.9967 North 352 405 16,500 1,320 Climbing Chicago Center
10:20PM 42.6089 -87.9944 North 358 412 17,800 1,380 Climbing Chicago Center
10:21PM 42.6939 -88.0636 329° Northwest 354 407 19,400 1,020 Climbing Chicago Center
10:22PM 42.7819 -88.1311 331° Northwest 361 415 20,000 240 Climbing Chicago Center
10:23PM 42.8914 -88.2131 331° Northwest 381 438 20,000  Level Chicago Center
10:24PM 42.9867 -88.2819 332° Northwest 386 444 20,000  Level Chicago Center
10:25PM 43.0803 -88.3539 331° Northwest 385 443 20,000  Level Chicago Center
10:26PM 43.1747 -88.4236 332° Northwest 384 442 20,000  Level Chicago Center
10:27PM 43.2683 -88.4944 331° Northwest 382 440 20,000  Level Chicago Center
10:28PM 43.3653 -88.5683 331° Northwest 389 448 20,000  Level Chicago Center
10:29PM 43.4642 -88.6433 331° Northwest 394 453 20,000 -360 Level Chicago Center
10:30PM 43.5608 -88.7167 331° Northwest 392 451 19,300 -1,080 Descending Chicago Center
10:31PM 43.6533 -88.7875 331° Northwest 383 441 17,900 -1,380 Descending Minneapolis Center
10:32PM 43.7447 -88.8575 331° Northwest 378 435 16,600 -1,500 Descending Minneapolis Center
10:33PM 43.8347 -88.9275 331° Northwest 373 429 14,900 -1,260 Descending Minneapolis Center
10:34PM 43.9231 -88.9953 331° Northwest 365 420 14,100 -480 Descending Minneapolis Center
10:35PM 43.9958 -89.0444 334° Northwest 355 409 14,000 -60 Descending Minneapolis Center
10:36PM 44.1158 -89.1136 338° Northwest 363 418 14,000  Level Minneapolis Center
10:37PM 44.2283 -89.1814 337° Northwest 368 423 14,000 -180 Level Minneapolis Center
10:38PM 44.3261 -89.2397 337° Northwest 368 423 13,700 -1,140 Descending Minneapolis Center
10:39PM 44.4156 -89.2931 337° Northwest 338 389 11,700 -1,860 Descending Minneapolis Center
10:40PM 44.4878 -89.3364 337° Northwest 298 343 10,000 -1,800 Descending Minneapolis Center
10:41PM 44.5569 -89.3786 336° Northwest 262 302 8,100 -2,100 Descending Minneapolis Center
10:42PM 44.6233 -89.4169 338° Northwest 247 284 5,800 -2,040 Descending Minneapolis Center
10:43PM 44.6822 -89.4528 337° Northwest 240 276 4,000 -1,380 Descending Minneapolis Center
10:44PM 44.7425 -89.4903 336° Northwest 230 265 3,100 -540 Descending Minneapolis Center
10:46PM 44.7903 -89.5239 333° Northwest 193 222 3,000 -360 Descending Minneapolis Center
10:47PM 44.7978 -89.5747 282° West 134 154 2,400 -420 Descending Minneapolis Center
10:48PM 44.7903 -89.6178 256° West 130 150 2,200 -240 Descending Minneapolis Center